createdAt,value
2024-01-25T00:00:46.395Z,9.24
2024-01-25T00:01:46.441Z,9.25
2024-01-25T00:02:46.295Z,9.25
2024-01-25T00:03:46.335Z,9.24
2024-01-25T00:04:46.411Z,9.25
2024-01-25T00:05:46.394Z,9.24
2024-01-25T00:06:46.318Z,9.23
2024-01-25T00:07:46.245Z,9.20
2024-01-25T00:08:46.234Z,9.23
2024-01-25T00:09:46.251Z,9.21
2024-01-25T00:10:46.191Z,9.20
2024-01-25T00:11:46.203Z,9.16
2024-01-25T00:12:46.202Z,9.16
2024-01-25T00:13:46.164Z,9.16
2024-01-25T00:14:46.161Z,9.18
2024-01-25T00:15:46.163Z,9.21
2024-01-25T00:16:46.146Z,9.21
2024-01-25T00:17:46.195Z,9.21
2024-01-25T00:18:46.296Z,9.20
2024-01-25T00:19:46.191Z,9.21
2024-01-25T00:20:46.079Z,9.23
2024-01-25T00:21:46.203Z,9.21
2024-01-25T00:22:46.091Z,9.18
2024-01-25T00:23:46.057Z,9.18
2024-01-25T00:24:46.056Z,9.20
2024-01-25T00:25:46.029Z,9.20
2024-01-25T00:26:46.039Z,9.16
2024-01-25T00:27:46.340Z,9.16
2024-01-25T00:28:45.993Z,9.16
2024-01-25T00:29:45.988Z,9.16
2024-01-25T00:30:45.996Z,9.16
2024-01-25T00:31:45.942Z,9.21
2024-01-25T00:32:46.005Z,9.23
2024-01-25T00:33:46.195Z,9.23
2024-01-25T00:34:45.991Z,9.23
2024-01-25T00:35:45.916Z,9.24
2024-01-25T00:36:45.951Z,9.24
2024-01-25T00:37:45.877Z,9.23
2024-01-25T00:38:45.891Z,9.20
2024-01-25T00:39:45.946Z,9.20
2024-01-25T00:40:45.866Z,9.18
2024-01-25T00:41:45.835Z,9.15
2024-01-25T00:42:45.942Z,9.15
2024-01-25T00:43:45.840Z,9.16
2024-01-25T00:44:45.808Z,9.15
2024-01-25T00:45:45.844Z,9.15
2024-01-25T00:46:45.778Z,9.16
2024-01-25T00:47:45.781Z,9.16
2024-01-25T00:48:46.016Z,9.16
2024-01-25T00:49:45.863Z,9.16
2024-01-25T00:50:45.728Z,9.16
2024-01-25T00:51:45.763Z,9.18
2024-01-25T00:52:45.706Z,9.20
2024-01-25T00:53:45.704Z,9.18
2024-01-25T00:54:45.729Z,9.20
2024-01-25T00:55:45.664Z,9.18
2024-01-25T00:56:45.674Z,9.20
2024-01-25T00:57:45.698Z,9.18
2024-01-25T00:58:45.651Z,9.18
2024-01-25T00:59:45.650Z,9.18
2024-01-25T01:00:45.668Z,9.15
2024-01-25T01:01:45.623Z,9.15
2024-01-25T01:02:45.590Z,9.15
2024-01-25T01:03:45.676Z,9.13
2024-01-25T01:04:47.862Z,9.13
2024-01-25T01:05:45.645Z,9.12
2024-01-25T01:06:45.654Z,9.06
2024-01-25T01:07:45.636Z,9.05
2024-01-25T01:08:45.518Z,9.02
2024-01-25T01:09:45.535Z,8.99
2024-01-25T01:10:45.499Z,8.99
2024-01-25T01:11:45.517Z,9.01
2024-01-25T01:12:45.520Z,8.97
2024-01-25T01:13:45.453Z,8.99
2024-01-25T01:14:45.439Z,8.97
2024-01-25T01:15:45.450Z,8.97
2024-01-25T01:16:45.421Z,8.99
2024-01-25T01:17:45.472Z,9.01
2024-01-25T01:18:45.565Z,8.99
2024-01-25T01:19:45.503Z,9.01
2024-01-25T01:20:45.384Z,9.02
2024-01-25T01:21:45.410Z,9.02
2024-01-25T01:22:45.354Z,9.02
2024-01-25T01:23:45.339Z,9.01
2024-01-25T01:24:45.385Z,9.01
2024-01-25T01:25:45.316Z,9.01
2024-01-25T01:26:45.310Z,9.02
2024-01-25T01:27:45.295Z,9.01
2024-01-25T01:28:45.290Z,9.01
2024-01-25T01:29:45.286Z,8.99
2024-01-25T01:30:45.299Z,8.97
2024-01-25T01:31:45.244Z,8.97
2024-01-25T01:32:45.391Z,8.96
2024-01-25T01:33:45.367Z,8.99
2024-01-25T01:34:45.407Z,8.97
2024-01-25T01:35:45.238Z,9.01
2024-01-25T01:36:45.236Z,9.01
2024-01-25T01:37:45.196Z,8.99
2024-01-25T01:38:45.163Z,8.99
2024-01-25T01:39:45.193Z,8.97
2024-01-25T01:40:45.139Z,8.94
2024-01-25T01:41:45.131Z,8.94
2024-01-25T01:42:45.202Z,8.91
2024-01-25T01:43:45.101Z,8.90
2024-01-25T01:44:45.101Z,8.86
2024-01-25T01:45:45.162Z,8.84
2024-01-25T01:46:45.072Z,8.88
2024-01-25T01:47:45.213Z,8.90
2024-01-25T01:48:45.281Z,8.91
2024-01-25T01:49:45.355Z,8.93
2024-01-25T01:50:45.071Z,8.93
2024-01-25T01:51:45.405Z,8.91
2024-01-25T01:52:45.011Z,8.90
2024-01-25T01:53:44.995Z,8.87
2024-01-25T01:54:45.010Z,8.88
2024-01-25T01:55:44.958Z,8.88
2024-01-25T01:56:44.944Z,8.91
2024-01-25T01:57:45.002Z,8.90
2024-01-25T01:58:44.983Z,8.93
2024-01-25T01:59:44.917Z,8.94
2024-01-25T02:00:44.960Z,8.91
2024-01-25T02:01:44.986Z,8.93
2024-01-25T02:02:44.894Z,8.93
2024-01-25T02:03:44.919Z,8.93
2024-01-25T02:04:45.028Z,8.93
2024-01-25T02:05:44.887Z,8.90
2024-01-25T02:06:45.127Z,8.91
2024-01-25T02:07:44.934Z,8.91
2024-01-25T02:08:44.807Z,8.90
2024-01-25T02:09:44.830Z,8.90
2024-01-25T02:10:44.795Z,8.90
2024-01-25T02:11:44.758Z,8.90
2024-01-25T02:12:44.839Z,8.90
2024-01-25T02:13:44.748Z,8.91
2024-01-25T02:14:44.735Z,8.88
2024-01-25T02:15:44.770Z,8.87
2024-01-25T02:16:44.830Z,8.86
2024-01-25T02:17:44.712Z,8.84
2024-01-25T02:18:44.811Z,8.83
2024-01-25T02:19:44.738Z,8.83
2024-01-25T02:20:44.666Z,8.83
2024-01-25T02:21:44.696Z,8.81
2024-01-25T02:22:44.642Z,8.83
2024-01-25T02:23:44.659Z,8.79
2024-01-25T02:24:44.666Z,8.79
2024-01-25T02:25:44.601Z,8.79
2024-01-25T02:26:44.583Z,8.81
2024-01-25T02:27:44.626Z,8.81
2024-01-25T02:28:44.584Z,8.83
2024-01-25T02:29:44.550Z,8.83
2024-01-25T02:30:44.577Z,8.81
2024-01-25T02:31:44.563Z,8.81
2024-01-25T02:32:44.598Z,8.81
2024-01-25T02:33:44.666Z,8.81
2024-01-25T02:34:44.635Z,8.83
2024-01-25T02:35:44.494Z,8.79
2024-01-25T02:36:44.519Z,8.81
2024-01-25T02:37:44.479Z,8.79
2024-01-25T02:38:44.443Z,8.79
2024-01-25T02:39:44.442Z,8.76
2024-01-25T02:40:44.419Z,8.73
2024-01-25T02:41:44.424Z,8.72
2024-01-25T02:42:44.478Z,8.71
2024-01-25T02:43:44.383Z,8.69
2024-01-25T02:44:44.381Z,8.69
2024-01-25T02:45:44.400Z,8.69
2024-01-25T02:46:44.357Z,8.68
2024-01-25T02:47:44.541Z,8.68
2024-01-25T02:48:44.491Z,8.66
2024-01-25T02:49:44.759Z,8.63
2024-01-25T02:50:44.305Z,8.62
2024-01-25T02:51:44.292Z,8.60
2024-01-25T02:52:44.296Z,8.58
2024-01-25T02:53:44.276Z,8.58
2024-01-25T02:54:44.298Z,8.57
2024-01-25T02:55:44.259Z,8.55
2024-01-25T02:56:44.234Z,8.53
2024-01-25T02:57:44.236Z,8.54
2024-01-25T02:58:51.290Z,8.53
2024-01-25T02:59:44.199Z,8.48
2024-01-25T03:00:44.346Z,8.48
2024-01-25T03:01:44.302Z,8.48
2024-01-25T03:02:44.158Z,8.48
2024-01-25T03:03:44.189Z,8.44
2024-01-25T03:04:44.286Z,8.42
2024-01-25T03:05:44.334Z,8.39
2024-01-25T03:06:44.330Z,8.37
2024-01-25T03:07:44.155Z,8.36
2024-01-25T03:08:44.097Z,8.36
2024-01-25T03:09:44.102Z,8.36
2024-01-25T03:10:44.071Z,8.37
2024-01-25T03:11:44.070Z,8.39
2024-01-25T03:12:44.117Z,8.39
2024-01-25T03:13:44.029Z,8.36
2024-01-25T03:14:44.036Z,8.36
2024-01-25T03:15:44.080Z,8.36
2024-01-25T03:16:44.009Z,8.36
2024-01-25T03:17:44.043Z,8.36
2024-01-25T03:18:44.096Z,8.37
2024-01-25T03:19:44.138Z,8.37
2024-01-25T03:20:43.947Z,8.36
2024-01-25T03:21:43.975Z,8.39
2024-01-25T03:22:43.932Z,8.36
2024-01-25T03:23:43.937Z,8.35
2024-01-25T03:24:43.954Z,8.35
2024-01-25T03:25:43.904Z,8.35
2024-01-25T03:26:43.889Z,8.30
2024-01-25T03:27:43.889Z,8.29
2024-01-25T03:28:43.858Z,8.26
2024-01-25T03:29:43.876Z,8.26
2024-01-25T03:30:43.847Z,8.26
2024-01-25T03:31:43.819Z,8.25
2024-01-25T03:32:43.868Z,8.28
2024-01-25T03:33:44.104Z,8.29
2024-01-25T03:34:43.917Z,8.29
2024-01-25T03:35:43.772Z,8.28
2024-01-25T03:36:43.807Z,8.28
2024-01-25T03:37:43.749Z,8.29
2024-01-25T03:38:43.738Z,8.28
2024-01-25T03:39:43.799Z,8.28
2024-01-25T03:40:45.530Z,8.29
2024-01-25T03:41:43.731Z,8.33
2024-01-25T03:42:54.229Z,8.36
2024-01-25T03:43:45.064Z,8.36
2024-01-25T03:44:43.686Z,8.39
2024-01-25T03:45:43.709Z,8.39
2024-01-25T03:46:43.665Z,8.39
2024-01-25T03:47:43.673Z,8.39
2024-01-25T03:48:43.696Z,8.36
2024-01-25T03:49:43.738Z,8.37
2024-01-25T03:50:43.676Z,8.37
2024-01-25T03:51:43.645Z,8.35
2024-01-25T03:52:43.586Z,8.35
2024-01-25T03:53:43.561Z,8.32
2024-01-25T03:54:43.601Z,8.30
2024-01-25T03:55:43.547Z,8.28
2024-01-25T03:56:43.576Z,8.25
2024-01-25T03:57:43.619Z,8.21
2024-01-25T03:58:43.595Z,8.21
2024-01-25T03:59:43.518Z,8.15
2024-01-25T04:00:43.566Z,8.17
2024-01-25T04:01:43.518Z,8.14
2024-01-25T04:02:43.456Z,8.12
2024-01-25T04:03:43.610Z,8.11
2024-01-25T04:04:43.464Z,8.08
2024-01-25T04:05:43.485Z,8.03
2024-01-25T04:06:43.451Z,8.02
2024-01-25T04:07:43.400Z,8.02
2024-01-25T04:08:43.400Z,8.03
2024-01-25T04:09:43.430Z,8.00
2024-01-25T04:10:43.384Z,7.97
2024-01-25T04:11:43.379Z,7.96
2024-01-25T04:12:43.401Z,7.92
2024-01-25T04:13:43.323Z,7.89
2024-01-25T04:14:43.318Z,7.89
2024-01-25T04:15:43.388Z,7.85
2024-01-25T04:16:43.309Z,7.84
2024-01-25T04:17:43.358Z,7.82
2024-01-25T04:18:43.425Z,7.81
2024-01-25T04:19:43.364Z,7.79
2024-01-25T04:20:43.375Z,7.75
2024-01-25T04:21:43.326Z,7.71
2024-01-25T04:22:43.241Z,7.69
2024-01-25T04:23:43.211Z,7.67
2024-01-25T04:24:43.272Z,7.67
2024-01-25T04:25:43.290Z,7.63
2024-01-25T04:26:43.177Z,7.63
2024-01-25T04:27:43.213Z,7.62
2024-01-25T04:28:43.169Z,7.60
2024-01-25T04:29:43.139Z,7.58
2024-01-25T04:30:43.187Z,7.60
2024-01-25T04:31:43.120Z,7.59
2024-01-25T04:32:43.185Z,7.58
2024-01-25T04:33:46.823Z,7.53
2024-01-25T04:34:44.266Z,7.49
2024-01-25T04:35:43.137Z,7.45
2024-01-25T04:36:43.151Z,7.45
2024-01-25T04:37:43.052Z,7.42
2024-01-25T04:38:43.043Z,7.41
2024-01-25T04:39:43.108Z,7.40
2024-01-25T04:40:43.053Z,7.37
2024-01-25T04:41:43.002Z,7.38
2024-01-25T04:42:43.059Z,7.35
2024-01-25T04:43:42.988Z,7.34
2024-01-25T04:44:42.981Z,7.32
2024-01-25T04:45:43.006Z,7.31
2024-01-25T04:46:42.976Z,7.27
2024-01-25T04:47:42.976Z,7.27
2024-01-25T04:48:43.401Z,7.24
2024-01-25T04:49:43.004Z,7.24
2024-01-25T04:50:42.953Z,7.22
2024-01-25T04:51:42.986Z,7.23
2024-01-25T04:52:42.902Z,7.20
2024-01-25T04:53:42.860Z,7.17
2024-01-25T04:54:42.877Z,7.17
2024-01-25T04:55:42.842Z,7.15
2024-01-25T04:56:42.831Z,7.13
2024-01-25T04:57:42.865Z,7.13
2024-01-25T04:58:42.818Z,7.12
2024-01-25T04:59:42.795Z,7.09
2024-01-25T05:00:42.913Z,7.09
2024-01-25T05:01:42.874Z,7.08
2024-01-25T05:02:42.761Z,7.05
2024-01-25T05:03:42.975Z,7.04
2024-01-25T05:04:46.120Z,6.98
2024-01-25T05:05:42.717Z,6.98
2024-01-25T05:06:42.736Z,6.98
2024-01-25T05:07:42.815Z,6.95
2024-01-25T05:08:42.866Z,6.95
2024-01-25T05:09:42.740Z,6.95
2024-01-25T05:10:42.684Z,6.91
2024-01-25T05:11:42.653Z,6.90
2024-01-25T05:12:42.693Z,6.90
2024-01-25T05:13:42.623Z,6.91
2024-01-25T05:14:42.652Z,6.89
2024-01-25T05:15:42.650Z,6.91
2024-01-25T05:16:42.629Z,6.87
2024-01-25T05:17:42.631Z,6.89
2024-01-25T05:18:42.879Z,6.87
2024-01-25T05:19:42.747Z,6.87
2024-01-25T05:20:42.586Z,6.87
2024-01-25T05:21:42.609Z,6.84
2024-01-25T05:22:42.567Z,6.83
2024-01-25T05:23:42.592Z,6.83
2024-01-25T05:24:42.530Z,6.83
2024-01-25T05:25:42.599Z,6.83
2024-01-25T05:26:42.479Z,6.81
2024-01-25T05:27:42.574Z,6.79
2024-01-25T05:28:42.472Z,6.77
2024-01-25T05:29:42.452Z,6.79
2024-01-25T05:30:42.477Z,6.76
2024-01-25T05:31:42.493Z,6.72
2024-01-25T05:32:42.488Z,6.71
2024-01-25T05:33:42.674Z,6.69
2024-01-25T05:34:42.542Z,6.69
2024-01-25T05:35:42.417Z,6.68
2024-01-25T05:36:42.435Z,6.69
2024-01-25T05:37:42.363Z,6.68
2024-01-25T05:38:42.340Z,6.69
2024-01-25T05:39:42.379Z,6.68
2024-01-25T05:40:42.326Z,6.65
2024-01-25T05:41:42.335Z,6.62
2024-01-25T05:42:42.379Z,6.65
2024-01-25T05:43:42.289Z,6.63
2024-01-25T05:44:42.272Z,6.63
2024-01-25T05:45:42.283Z,6.62
2024-01-25T05:46:42.251Z,6.62
2024-01-25T05:47:42.292Z,6.61
2024-01-25T05:48:42.508Z,6.59
2024-01-25T05:49:42.305Z,6.56
2024-01-25T05:50:42.210Z,6.54
2024-01-25T05:51:42.232Z,6.53
2024-01-25T05:52:42.181Z,6.51
2024-01-25T05:53:42.183Z,6.51
2024-01-25T05:54:42.185Z,6.53
2024-01-25T05:55:42.166Z,6.51
2024-01-25T05:56:42.139Z,6.51
2024-01-25T05:57:42.138Z,6.53
2024-01-25T05:58:42.138Z,6.56
2024-01-25T05:59:42.098Z,6.58
2024-01-25T06:00:42.200Z,6.59
2024-01-25T06:01:42.136Z,6.58
2024-01-25T06:02:42.051Z,6.54
2024-01-25T06:03:42.171Z,6.51
2024-01-25T06:04:42.475Z,6.50
2024-01-25T06:05:42.220Z,6.48
2024-01-25T06:06:42.157Z,6.46
2024-01-25T06:07:42.265Z,6.47
2024-01-25T06:08:42.571Z,6.46
2024-01-25T06:09:42.026Z,6.43
2024-01-25T06:10:42.054Z,6.41
2024-01-25T06:11:41.953Z,6.41
2024-01-25T06:12:42.096Z,6.41
2024-01-25T06:13:41.949Z,6.41
2024-01-25T06:14:41.922Z,6.40
2024-01-25T06:15:41.978Z,6.36
2024-01-25T06:16:43.371Z,6.41
2024-01-25T06:17:41.889Z,6.38
2024-01-25T06:18:41.951Z,6.41
2024-01-25T06:19:41.973Z,6.38
2024-01-25T06:20:41.932Z,6.33
2024-01-25T06:21:41.931Z,6.35
2024-01-25T06:22:41.835Z,6.33
2024-01-25T06:23:41.818Z,6.33
2024-01-25T06:24:41.868Z,6.32
2024-01-25T06:25:41.851Z,6.33
2024-01-25T06:26:41.777Z,6.32
2024-01-25T06:27:41.811Z,6.30
2024-01-25T06:28:41.754Z,6.32
2024-01-25T06:29:41.747Z,6.35
2024-01-25T06:30:41.768Z,6.35
2024-01-25T06:31:41.722Z,6.32
2024-01-25T06:32:41.767Z,6.33
2024-01-25T06:33:41.824Z,6.28
2024-01-25T06:34:41.852Z,6.26
2024-01-25T06:35:41.701Z,6.25
2024-01-25T06:36:41.764Z,6.25
2024-01-25T06:37:41.707Z,6.28
2024-01-25T06:38:41.633Z,6.29
2024-01-25T06:39:41.675Z,6.28
2024-01-25T06:40:41.615Z,6.32
2024-01-25T06:41:41.603Z,6.32
2024-01-25T06:42:41.655Z,6.30
2024-01-25T06:43:41.585Z,6.26
2024-01-25T06:44:41.578Z,6.26
2024-01-25T06:45:41.621Z,6.26
2024-01-25T06:46:41.541Z,6.25
2024-01-25T06:47:41.604Z,6.26
2024-01-25T06:48:41.726Z,6.29
2024-01-25T06:49:41.603Z,6.29
2024-01-25T06:50:41.693Z,6.29
2024-01-25T06:51:41.526Z,6.29
2024-01-25T06:52:41.472Z,6.28
2024-01-25T06:53:41.469Z,6.25
2024-01-25T06:54:41.592Z,6.22
2024-01-25T06:55:41.468Z,6.25
2024-01-25T06:56:41.427Z,6.21
2024-01-25T06:57:41.500Z,6.18
2024-01-25T06:58:41.423Z,6.16
2024-01-25T06:59:41.399Z,6.14
2024-01-25T07:00:41.487Z,6.14
2024-01-25T07:01:41.455Z,6.11
2024-01-25T07:02:41.424Z,6.13
2024-01-25T07:03:41.430Z,6.11
2024-01-25T07:04:41.421Z,6.13
2024-01-25T07:05:41.334Z,6.11
2024-01-25T07:06:41.363Z,6.10
2024-01-25T07:07:41.380Z,6.10
2024-01-25T07:08:41.286Z,6.10
2024-01-25T07:09:41.374Z,6.14
2024-01-25T07:10:41.261Z,6.11
2024-01-25T07:11:41.259Z,6.10
2024-01-25T07:12:41.358Z,6.09
2024-01-25T07:13:41.226Z,6.10
2024-01-25T07:14:41.240Z,6.11
2024-01-25T07:15:41.285Z,6.13
2024-01-25T07:16:41.198Z,6.13
2024-01-25T07:17:41.228Z,6.10
2024-01-25T07:18:41.240Z,6.09
2024-01-25T07:19:41.266Z,6.07
2024-01-25T07:20:41.362Z,6.07
2024-01-25T07:21:41.195Z,6.04
2024-01-25T07:22:41.128Z,6.04
2024-01-25T07:23:41.115Z,6.04
2024-01-25T07:24:41.120Z,6.04
2024-01-25T07:25:41.150Z,6.04
2024-01-25T07:26:41.082Z,6.06
2024-01-25T07:27:41.104Z,6.06
2024-01-25T07:28:41.052Z,6.06
2024-01-25T07:29:41.057Z,6.07
2024-01-25T07:30:41.057Z,6.09
2024-01-25T07:31:41.045Z,6.07
2024-01-25T07:32:41.069Z,6.09
2024-01-25T07:33:41.259Z,6.07
2024-01-25T07:34:41.239Z,6.11
2024-01-25T07:35:40.994Z,6.11
2024-01-25T07:36:42.479Z,6.16
2024-01-25T07:37:40.986Z,6.19
2024-01-25T07:38:40.940Z,6.22
2024-01-25T07:39:40.981Z,6.22
2024-01-25T07:40:40.918Z,6.29
2024-01-25T07:41:40.900Z,6.32
2024-01-25T07:42:40.981Z,6.30
2024-01-25T07:43:40.885Z,6.32
2024-01-25T07:44:40.874Z,6.35
2024-01-25T07:45:40.916Z,6.35
2024-01-25T07:46:40.866Z,6.38
2024-01-25T07:47:40.885Z,6.41
2024-01-25T07:48:40.842Z,6.40
2024-01-25T07:49:40.952Z,6.43
2024-01-25T07:50:40.993Z,6.44
2024-01-25T07:51:40.816Z,6.47
2024-01-25T07:52:40.811Z,6.50
2024-01-25T07:53:40.796Z,6.51
2024-01-25T07:54:40.839Z,6.51
2024-01-25T07:55:40.835Z,6.58
2024-01-25T07:56:40.728Z,6.58
2024-01-25T07:57:40.744Z,6.59
2024-01-25T07:58:40.710Z,6.59
2024-01-25T07:59:40.725Z,6.59
2024-01-25T08:00:40.790Z,6.63
2024-01-25T08:01:40.710Z,6.66
2024-01-25T08:02:40.661Z,6.68
2024-01-25T08:03:40.746Z,6.69
2024-01-25T08:04:40.690Z,6.72
2024-01-25T08:05:45.330Z,6.71
2024-01-25T08:06:41.704Z,6.72
2024-01-25T08:07:40.682Z,6.72
2024-01-25T08:08:40.606Z,6.72
2024-01-25T08:09:40.682Z,6.76
2024-01-25T08:10:40.605Z,6.77
2024-01-25T08:11:40.547Z,6.79
2024-01-25T08:12:45.408Z,6.81
2024-01-25T08:13:41.572Z,6.80
2024-01-25T08:14:40.564Z,6.81
2024-01-25T08:15:40.546Z,6.83
2024-01-25T08:16:40.538Z,6.84
2024-01-25T08:17:40.618Z,6.86
2024-01-25T08:18:40.515Z,6.87
2024-01-25T08:19:40.646Z,6.90
2024-01-25T08:20:40.752Z,6.94
2024-01-25T08:21:40.469Z,6.98
2024-01-25T08:22:40.443Z,6.98
2024-01-25T08:23:40.413Z,6.97
2024-01-25T08:24:40.443Z,6.98
2024-01-25T08:25:40.433Z,7.01
2024-01-25T08:26:40.370Z,6.99
2024-01-25T08:27:40.430Z,6.97
2024-01-25T08:28:40.383Z,6.97
2024-01-25T08:29:40.362Z,6.98
2024-01-25T08:30:40.415Z,6.99
2024-01-25T08:31:40.395Z,6.98
2024-01-25T08:32:40.424Z,6.99
2024-01-25T08:33:40.456Z,7.01
2024-01-25T08:34:40.469Z,6.99
2024-01-25T08:35:40.405Z,6.95
2024-01-25T08:36:40.286Z,6.90
2024-01-25T08:37:40.253Z,6.83
2024-01-25T08:38:40.257Z,6.79
2024-01-25T08:39:40.289Z,6.79
2024-01-25T08:40:40.260Z,6.72
2024-01-25T08:41:41.970Z,6.71
2024-01-25T08:42:40.245Z,6.69
2024-01-25T08:43:40.200Z,6.72
2024-01-25T08:44:40.220Z,6.71
2024-01-25T08:45:40.226Z,6.71
2024-01-25T08:46:40.220Z,6.72
2024-01-25T08:47:40.162Z,6.73
2024-01-25T08:48:40.301Z,6.72
2024-01-25T08:49:40.249Z,6.71
2024-01-25T08:50:40.198Z,6.71
2024-01-25T08:51:40.152Z,6.71
2024-01-25T08:52:40.102Z,6.69
2024-01-25T08:53:40.067Z,6.72
2024-01-25T08:54:40.101Z,6.69
2024-01-25T08:55:40.093Z,6.68
2024-01-25T08:56:40.048Z,6.69
2024-01-25T08:57:40.085Z,6.69
2024-01-25T08:58:40.032Z,6.71
2024-01-25T08:59:40.016Z,6.69
2024-01-25T09:00:40.213Z,6.71
2024-01-25T09:01:40.019Z,6.71
2024-01-25T09:02:40.067Z,6.72
2024-01-25T09:03:40.084Z,6.72
2024-01-25T09:04:40.022Z,6.72
2024-01-25T09:05:40.026Z,6.76
2024-01-25T09:06:40.053Z,6.77
2024-01-25T09:07:40.160Z,6.79
2024-01-25T09:08:39.963Z,6.79
2024-01-25T09:09:40.979Z,6.81
2024-01-25T09:10:40.050Z,6.80
2024-01-25T09:11:39.916Z,6.80
2024-01-25T09:12:39.905Z,6.81
2024-01-25T09:13:45.704Z,6.80
2024-01-25T09:14:40.825Z,6.80
2024-01-25T09:15:39.875Z,6.79
2024-01-25T09:16:39.912Z,6.79
2024-01-25T09:17:39.951Z,6.81
2024-01-25T09:18:40.081Z,6.81
2024-01-25T09:19:40.004Z,6.86
2024-01-25T09:20:39.812Z,6.89
2024-01-25T09:21:39.885Z,6.86
2024-01-25T09:22:39.776Z,6.89
2024-01-25T09:23:39.717Z,6.95
2024-01-25T09:24:39.778Z,6.99
2024-01-25T09:25:39.737Z,6.99
2024-01-25T09:26:39.722Z,6.97
2024-01-25T09:27:40.032Z,6.97
2024-01-25T09:28:39.783Z,6.95
2024-01-25T09:29:39.655Z,6.94
2024-01-25T09:30:39.664Z,6.98
2024-01-25T09:31:39.919Z,7.01
2024-01-25T09:32:39.705Z,7.02
2024-01-25T09:33:39.925Z,7.07
2024-01-25T09:34:40.836Z,7.12
2024-01-25T09:35:39.782Z,7.13
2024-01-25T09:36:39.622Z,7.13
2024-01-25T09:37:39.617Z,7.09
2024-01-25T09:38:39.585Z,7.12
2024-01-25T09:39:39.578Z,7.13
2024-01-25T09:40:39.580Z,7.09
2024-01-25T09:41:39.511Z,7.09
2024-01-25T09:42:39.533Z,7.13
2024-01-25T09:43:39.543Z,7.15
2024-01-25T09:44:39.463Z,7.17
2024-01-25T09:45:39.538Z,7.16
2024-01-25T09:46:39.575Z,7.17
2024-01-25T09:47:39.509Z,7.20
2024-01-25T09:48:39.581Z,7.22
2024-01-25T09:49:39.749Z,7.22
2024-01-25T09:50:42.211Z,7.24
2024-01-25T09:51:39.427Z,7.22
2024-01-25T09:52:39.468Z,7.22
2024-01-25T09:53:39.360Z,7.23
2024-01-25T09:54:39.468Z,7.24
2024-01-25T09:55:39.491Z,7.29
2024-01-25T09:56:39.328Z,7.35
2024-01-25T09:57:39.422Z,7.34
2024-01-25T09:58:39.340Z,7.40
2024-01-25T09:59:39.298Z,7.45
2024-01-25T10:00:39.427Z,7.50
2024-01-25T10:01:39.464Z,7.53
2024-01-25T10:02:39.406Z,7.58
2024-01-25T10:03:39.418Z,7.56
2024-01-25T10:04:39.337Z,7.58
2024-01-25T10:05:39.443Z,7.58
2024-01-25T10:06:39.399Z,7.59
2024-01-25T10:07:39.363Z,7.55
2024-01-25T10:08:39.194Z,7.59
2024-01-25T10:09:39.225Z,7.59
2024-01-25T10:10:39.182Z,7.66
2024-01-25T10:11:42.987Z,7.62
2024-01-25T10:12:40.307Z,7.56
2024-01-25T10:13:39.179Z,7.60
2024-01-25T10:14:39.107Z,7.62
2024-01-25T10:15:39.147Z,7.60
2024-01-25T10:16:39.367Z,7.62
2024-01-25T10:18:39.324Z,7.69
2024-01-25T10:19:39.341Z,7.71
2024-01-25T10:20:39.227Z,7.71
2024-01-25T10:21:39.352Z,7.67
2024-01-25T10:22:39.125Z,7.66
2024-01-25T10:23:39.056Z,7.67
2024-01-25T10:24:39.086Z,7.71
2024-01-25T10:25:39.044Z,7.77
2024-01-25T10:26:38.980Z,7.81
2024-01-25T10:27:39.007Z,7.81
2024-01-25T10:28:39.264Z,7.82
2024-01-25T10:29:39.136Z,7.87
2024-01-25T10:30:38.973Z,7.93
2024-01-25T10:31:39.091Z,7.97
2024-01-25T10:32:38.996Z,8.02
2024-01-25T10:33:38.979Z,8.02
2024-01-25T10:34:38.990Z,7.97
2024-01-25T10:35:39.013Z,8.00
2024-01-25T10:36:38.888Z,8.02
2024-01-25T10:37:38.855Z,8.03
2024-01-25T10:38:38.909Z,7.99
2024-01-25T10:39:38.867Z,7.94
2024-01-25T10:40:38.912Z,7.90
2024-01-25T10:41:38.789Z,7.82
2024-01-25T10:42:38.887Z,7.78
2024-01-25T10:43:38.867Z,7.74
2024-01-25T10:44:38.782Z,7.74
2024-01-25T10:45:38.788Z,7.72
2024-01-25T10:46:38.885Z,7.71
2024-01-25T10:47:38.778Z,7.75
2024-01-25T10:48:38.805Z,7.74
2024-01-25T10:49:38.865Z,7.75
2024-01-25T10:50:38.850Z,7.79
2024-01-25T10:51:38.698Z,7.85
2024-01-25T10:52:38.731Z,7.93
2024-01-25T10:53:38.641Z,7.97
2024-01-25T10:54:38.706Z,8.02
2024-01-25T10:55:38.768Z,8.11
2024-01-25T10:56:38.619Z,8.18
2024-01-25T10:57:38.622Z,8.29
2024-01-25T10:58:39.058Z,8.30
2024-01-25T10:59:38.586Z,8.35
2024-01-25T11:00:38.663Z,8.36
2024-01-25T11:01:38.643Z,8.29
2024-01-25T11:02:38.635Z,8.21
2024-01-25T11:03:38.616Z,8.22
2024-01-25T11:04:38.626Z,8.29
2024-01-25T11:05:38.837Z,8.35
2024-01-25T11:06:38.656Z,8.42
2024-01-25T11:07:38.521Z,8.47
2024-01-25T11:08:38.502Z,8.55
2024-01-25T11:09:38.505Z,8.58
2024-01-25T11:10:38.501Z,8.58
2024-01-25T11:11:38.463Z,8.62
2024-01-25T11:12:38.494Z,8.66
2024-01-25T11:13:38.492Z,8.69
2024-01-25T11:14:41.103Z,8.75
2024-01-25T11:15:38.625Z,8.83
2024-01-25T11:16:38.563Z,8.76
2024-01-25T11:17:38.414Z,8.68
2024-01-25T11:18:38.516Z,8.68
2024-01-25T11:19:38.525Z,8.68
2024-01-25T11:20:38.844Z,8.69
2024-01-25T11:21:38.407Z,8.71
2024-01-25T11:22:38.353Z,8.73
2024-01-25T11:23:38.313Z,8.79
2024-01-25T11:24:38.348Z,8.86
2024-01-25T11:25:38.311Z,8.78
2024-01-25T11:26:38.301Z,8.81
2024-01-25T11:27:38.317Z,8.72
2024-01-25T11:28:38.323Z,8.66
2024-01-25T11:29:40.614Z,8.58
2024-01-25T11:30:38.288Z,8.57
2024-01-25T11:31:38.321Z,8.58
2024-01-25T11:32:38.285Z,8.62
2024-01-25T11:33:38.333Z,8.62
2024-01-25T11:34:38.398Z,8.63
2024-01-25T11:35:38.390Z,8.63
2024-01-25T11:36:38.199Z,8.58
2024-01-25T11:37:38.216Z,8.54
2024-01-25T11:38:38.202Z,8.54
2024-01-25T11:39:38.249Z,8.57
2024-01-25T11:40:38.552Z,8.63
2024-01-25T11:41:38.110Z,8.66
2024-01-25T11:42:38.151Z,8.72
2024-01-25T11:43:38.138Z,8.81
2024-01-25T11:44:38.095Z,8.79
2024-01-25T11:45:38.102Z,8.79
2024-01-25T11:46:38.778Z,8.76
2024-01-25T11:47:38.059Z,8.79
2024-01-25T11:48:38.215Z,8.86
2024-01-25T11:49:38.175Z,8.90
2024-01-25T11:50:38.200Z,8.96
2024-01-25T11:51:38.181Z,8.91
2024-01-25T11:52:38.207Z,8.94
2024-01-25T11:53:37.968Z,8.97
2024-01-25T11:54:38.058Z,8.96
2024-01-25T11:55:38.012Z,8.93
2024-01-25T11:56:37.942Z,8.90
2024-01-25T11:57:37.951Z,8.93
2024-01-25T11:58:40.619Z,8.97
2024-01-25T11:59:37.917Z,9.01
2024-01-25T12:00:38.169Z,9.02
2024-01-25T12:01:38.095Z,9.05
2024-01-25T12:02:38.043Z,9.12
2024-01-25T12:03:37.904Z,9.09
2024-01-25T12:04:38.370Z,9.06
2024-01-25T12:05:38.020Z,9.13
2024-01-25T12:06:38.326Z,9.18
2024-01-25T12:07:37.949Z,9.24
2024-01-25T12:08:37.786Z,9.30
2024-01-25T12:09:37.843Z,9.34
2024-01-25T12:10:37.874Z,9.40
2024-01-25T12:11:37.766Z,9.46
2024-01-25T12:12:37.886Z,9.48
2024-01-25T12:13:37.805Z,9.52
2024-01-25T12:14:37.705Z,9.56
2024-01-25T12:15:37.781Z,9.58
2024-01-25T12:16:38.925Z,9.58
2024-01-25T12:17:37.946Z,9.63
2024-01-25T12:18:38.001Z,9.61
2024-01-25T12:19:37.964Z,9.67
2024-01-25T12:20:37.806Z,9.68
2024-01-25T12:21:38.150Z,9.73
2024-01-25T12:22:38.486Z,9.71
2024-01-25T12:23:37.606Z,9.70
2024-01-25T12:24:39.142Z,9.75
2024-01-25T12:25:37.630Z,9.78
2024-01-25T12:26:37.609Z,9.79
2024-01-25T12:27:37.604Z,9.83
2024-01-25T12:28:37.766Z,9.88
2024-01-25T12:29:37.570Z,9.94
2024-01-25T12:30:37.617Z,9.96
2024-01-25T12:31:37.656Z,9.99
2024-01-25T12:32:37.567Z,10.00
2024-01-25T12:33:37.840Z,10.03
2024-01-25T12:34:38.325Z,10.06
2024-01-25T12:35:37.565Z,10.07
2024-01-25T12:36:37.553Z,10.12
2024-01-25T12:37:37.600Z,10.14
2024-01-25T12:38:37.465Z,10.07
2024-01-25T12:39:37.478Z,10.04
2024-01-25T12:40:37.490Z,10.01
2024-01-25T12:41:37.459Z,10.03
2024-01-25T12:42:37.551Z,10.00
2024-01-25T12:43:37.404Z,9.97
2024-01-25T12:44:37.494Z,9.93
2024-01-25T12:45:37.407Z,9.96
2024-01-25T12:46:37.365Z,9.96
2024-01-25T12:47:37.579Z,9.96
2024-01-25T12:48:37.385Z,9.96
2024-01-25T12:49:37.317Z,9.96
2024-01-25T12:50:37.305Z,9.89
2024-01-25T12:51:37.333Z,9.83
2024-01-25T12:52:37.276Z,9.71
2024-01-25T12:53:37.286Z,9.67
2024-01-25T12:54:37.321Z,9.68
2024-01-25T12:55:37.245Z,9.73
2024-01-25T12:56:37.236Z,9.71
2024-01-25T12:57:37.242Z,9.75
2024-01-25T12:58:37.216Z,9.78
2024-01-25T12:59:37.212Z,9.70
2024-01-25T13:00:37.299Z,9.68
2024-01-25T13:01:37.272Z,9.66
2024-01-25T13:02:37.167Z,9.67
2024-01-25T13:03:39.686Z,9.64
2024-01-25T13:04:37.235Z,9.67
2024-01-25T13:05:37.220Z,9.67
2024-01-25T13:06:37.158Z,9.66
2024-01-25T13:07:37.104Z,9.66
2024-01-25T13:08:37.103Z,9.66
2024-01-25T13:09:37.150Z,9.68
2024-01-25T13:10:37.126Z,9.68
2024-01-25T13:11:37.052Z,9.67
2024-01-25T13:12:37.089Z,9.66
2024-01-25T13:13:37.062Z,9.67
2024-01-25T13:14:37.028Z,9.67
2024-01-25T13:15:37.086Z,9.66
2024-01-25T13:16:37.018Z,9.58
2024-01-25T13:17:37.048Z,9.56
2024-01-25T13:18:37.109Z,9.52
2024-01-25T13:19:37.111Z,9.57